sensor_id;sensor_type;location;lat;lon;timestamp;pressure;altitude;pressure_sealevel;temperature;humidity
14253;BME280;7210;51.502;10.722;2023-08-12T00:02:14;99885.28;;;16.93;100.00
14253;BME280;7210;51.502;10.722;2023-08-12T00:04:41;99889.31;;;16.95;100.00
14253;BME280;7210;51.502;10.722;2023-08-12T00:07:09;99886.59;;;16.90;100.00
14253;BME280;7210;51.502;10.722;2023-08-12T00:09:36;99882.34;;;16.89;100.00
14253;BME280;7210;51.502;10.722;2023-08-12T00:12:12;99876.44;;;16.87;100.00
14253;BME280;7210;51.502;10.722;2023-08-12T00:14:43;99880.16;;;16.81;100.00
14253;BME280;7210;51.502;10.722;2023-08-12T00:17:12;99878.53;;;16.75;100.00
14253;BME280;7210;51.502;10.722;2023-08-12T00:19:42;99878.22;;;16.72;100.00
14253;BME280;7210;51.502;10.722;2023-08-12T00:22:09;99870.72;;;16.64;100.00
14253;BME280;7210;51.502;10.722;2023-08-12T00:24:48;99863.44;;;16.49;100.00
14253;BME280;7210;51.502;10.722;2023-08-12T00:27:16;99862.91;;;16.52;100.00
14253;BME280;7210;51.502;10.722;2023-08-12T00:29:45;99866.13;;;16.54;100.00
14253;BME280;7210;51.502;10.722;2023-08-12T00:32:13;99880.03;;;16.61;100.00
14253;BME280;7210;51.502;10.722;2023-08-12T00:34:40;99876.63;;;16.66;100.00
14253;BME280;7210;51.502;10.722;2023-08-12T00:37:12;99872.03;;;16.61;100.00
14253;BME280;7210;51.502;10.722;2023-08-12T00:39:42;99872.03;;;16.56;100.00
14253;BME280;7210;51.502;10.722;2023-08-12T00:42:12;99875.19;;;16.53;100.00
14253;BME280;7210;51.502;10.722;2023-08-12T00:44:39;99868.81;;;16.54;100.00
14253;BME280;7210;51.502;10.722;2023-08-12T00:47:13;99861.25;;;16.41;100.00
14253;BME280;7210;51.502;10.722;2023-08-12T00:49:42;99874.16;;;16.54;100.00
14253;BME280;7210;51.502;10.722;2023-08-12T00:52:11;99873.66;;;16.62;100.00
14253;BME280;7210;51.502;10.722;2023-08-12T00:54:42;99869.94;;;16.68;100.00
14253;BME280;7210;51.502;10.722;2023-08-12T00:57:12;99860.31;;;16.67;100.00
14253;BME280;7210;51.502;10.722;2023-08-12T00:59:43;99857.34;;;16.64;100.00
14253;BME280;7210;51.502;10.722;2023-08-12T01:02:19;99842.06;;;16.49;100.00
14253;BME280;7210;51.502;10.722;2023-08-12T01:04:47;99854.97;;;16.62;100.00
14253;BME280;7210;51.502;10.722;2023-08-12T01:07:18;99861.63;;;16.65;100.00
14253;BME280;7210;51.502;10.722;2023-08-12T01:09:45;99855.50;;;16.64;100.00
14253;BME280;7210;51.502;10.722;2023-08-12T01:12:18;99855.50;;;16.64;100.00
14253;BME280;7210;51.502;10.722;2023-08-12T01:15:04;99854.97;;;16.67;100.00
14253;BME280;7210;51.502;10.722;2023-08-12T01:17:41;99846.44;;;16.65;100.00
14253;BME280;7210;51.502;10.722;2023-08-12T01:20:11;99839.44;;;16.59;100.00
14253;BME280;7210;51.502;10.722;2023-08-12T01:22:41;99840.75;;;16.52;100.00
14253;BME280;7210;51.502;10.722;2023-08-12T01:25:12;99834.84;;;16.45;100.00
14253;BME280;7210;51.502;10.722;2023-08-12T01:27:39;99835.63;;;16.40;100.00
14253;BME280;7210;51.502;10.722;2023-08-12T01:30:08;99831.28;;;16.34;100.00
14253;BME280;7210;51.502;10.722;2023-08-12T01:32:43;99790.28;;;16.09;100.00
14253;BME280;7210;51.502;10.722;2023-08-12T01:35:19;99840.88;;;16.35;100.00
14253;BME280;7210;51.502;10.722;2023-08-12T01:37:51;99804.44;;;16.14;100.00
14253;BME280;7210;51.502;10.722;2023-08-12T01:40:24;99828.31;;;16.31;100.00
14253;BME280;7210;51.502;10.722;2023-08-12T01:42:52;99823.22;;;16.24;100.00
14253;BME280;7210;51.502;10.722;2023-08-12T01:45:24;99819.97;;;16.22;100.00
14253;BME280;7210;51.502;10.722;2023-08-12T01:47:51;99825.88;;;16.24;100.00
14253;BME280;7210;51.502;10.722;2023-08-12T01:50:24;99809.84;;;16.19;100.00
14253;BME280;7210;51.502;10.722;2023-08-12T01:52:54;99812.00;;;16.27;100.00
14253;BME280;7210;51.502;10.722;2023-08-12T01:55:31;99810.69;;;16.30;100.00
14253;BME280;7210;51.502;10.722;2023-08-12T01:58:00;99798.91;;;16.26;100.00
14253;BME280;7210;51.502;10.722;2023-08-12T02:00:27;99801.31;;;16.22;100.00
14253;BME280;7210;51.502;10.722;2023-08-12T02:02:54;99790.91;;;16.21;100.00
14253;BME280;7210;51.502;10.722;2023-08-12T02:05:24;99794.88;;;16.18;100.00
14253;BME280;7210;51.502;10.722;2023-08-12T02:07:54;99791.13;;;16.14;100.00
14253;BME280;7210;51.502;10.722;2023-08-12T02:10:21;99793.19;;;16.07;100.00
14253;BME280;7210;51.502;10.722;2023-08-12T02:12:50;99787.31;;;16.05;100.00
14253;BME280;7210;51.502;10.722;2023-08-12T02:15:17;99795.88;;;16.07;100.00
14253;BME280;7210;51.502;10.722;2023-08-12T02:17:44;99802.59;;;16.15;100.00
14253;BME280;7210;51.502;10.722;2023-08-12T02:20:24;99799.16;;;16.19;100.00
14253;BME280;7210;51.502;10.722;2023-08-12T02:22:51;99797.50;;;16.08;100.00
14253;BME280;7210;51.502;10.722;2023-08-12T02:25:18;99796.41;;;16.04;100.00
14253;BME280;7210;51.502;10.722;2023-08-12T02:27:46;99789.69;;;16.02;100.00
14253;BME280;7210;51.502;10.722;2023-08-12T02:30:15;99793.69;;;15.99;100.00
14253;BME280;7210;51.502;10.722;2023-08-12T02:32:42;99781.94;;;15.95;100.00
14253;BME280;7210;51.502;10.722;2023-08-12T02:35:10;99778.16;;;15.91;100.00
14253;BME280;7210;51.502;10.722;2023-08-12T02:37:37;99777.13;;;15.92;100.00
14253;BME280;7210;51.502;10.722;2023-08-12T02:40:06;99779.78;;;15.92;100.00
14253;BME280;7210;51.502;10.722;2023-08-12T02:42:34;99775.00;;;15.94;100.00
14253;BME280;7210;51.502;10.722;2023-08-12T02:45:02;99776.13;;;16.03;100.00
14253;BME280;7210;51.502;10.722;2023-08-12T02:47:31;99772.13;;;16.06;100.00
14253;BME280;7210;51.502;10.722;2023-08-12T02:49:58;99779.88;;;16.07;100.00
14253;BME280;7210;51.502;10.722;2023-08-12T02:52:30;99765.44;;;16.03;100.00
14253;BME280;7210;51.502;10.722;2023-08-12T02:54:57;99772.38;;;16.04;100.00
14253;BME280;7210;51.502;10.722;2023-08-12T02:57:24;99765.69;;;16.02;100.00
14253;BME280;7210;51.502;10.722;2023-08-12T02:59:54;99751.81;;;16.00;100.00
14253;BME280;7210;51.502;10.722;2023-08-12T03:02:21;99706.06;;;15.76;100.00
14253;BME280;7210;51.502;10.722;2023-08-12T03:04:50;99752.94;;;16.09;100.00
14253;BME280;7210;51.502;10.722;2023-08-12T03:07:18;99746.81;;;16.13;100.00
14253;BME280;7210;51.502;10.722;2023-08-12T03:09:45;99737.47;;;16.11;100.00
14253;BME280;7210;51.502;10.722;2023-08-12T03:12:18;99747.41;;;16.15;100.00
14253;BME280;7210;51.502;10.722;2023-08-12T03:14:45;99748.94;;;16.11;100.00
14253;BME280;7210;51.502;10.722;2023-08-12T03:17:12;99746.03;;;16.13;100.00
14253;BME280;7210;51.502;10.722;2023-08-12T03:19:42;99743.09;;;16.14;100.00
14253;BME280;7210;51.502;10.722;2023-08-12T03:22:10;99731.09;;;16.17;100.00
14253;BME280;7210;51.502;10.722;2023-08-12T03:24:39;99743.66;;;16.21;100.00
14253;BME280;7210;51.502;10.722;2023-08-12T03:27:12;99751.41;;;16.23;100.00
14253;BME280;7210;51.502;10.722;2023-08-12T03:29:42;99738.31;;;16.21;100.00
14253;BME280;7210;51.502;10.722;2023-08-12T03:32:09;99744.19;;;16.18;100.00
14253;BME280;7210;51.502;10.722;2023-08-12T03:34:37;99747.09;;;16.12;100.00
14253;BME280;7210;51.502;10.722;2023-08-12T03:37:06;99732.13;;;16.11;100.00
14253;BME280;7210;51.502;10.722;2023-08-12T03:39:49;99718.22;;;15.99;100.00
14253;BME280;7210;51.502;10.722;2023-08-12T03:42:18;99740.44;;;16.14;100.00
14253;BME280;7210;51.502;10.722;2023-08-12T03:44:48;99736.16;;;16.13;100.00
14253;BME280;7210;51.502;10.722;2023-08-12T03:47:16;99735.38;;;16.13;100.00
14253;BME280;7210;51.502;10.722;2023-08-12T03:49:48;99736.16;;;16.13;100.00
14253;BME280;7210;51.502;10.722;2023-08-12T03:52:15;99740.69;;;16.13;100.00
14253;BME280;7210;51.502;10.722;2023-08-12T03:54:42;99735.38;;;16.13;100.00
14253;BME280;7210;51.502;10.722;2023-08-12T03:57:12;99737.75;;;16.14;100.00
14253;BME280;7210;51.502;10.722;2023-08-12T03:59:42;99747.94;;;16.17;100.00
14253;BME280;7210;51.502;10.722;2023-08-12T04:02:09;99747.41;;;16.20;100.00
14253;BME280;7210;51.502;10.722;2023-08-12T04:04:36;99748.22;;;16.21;100.00
14253;BME280;7210;51.502;10.722;2023-08-12T04:07:06;99746.09;;;16.23;100.00
14253;BME280;7210;51.502;10.722;2023-08-12T04:09:36;99748.00;;;16.32;100.00
14253;BME280;7210;51.502;10.722;2023-08-12T04:12:03;99747.53;;;16.40;100.00
14253;BME280;7210;51.502;10.722;2023-08-12T04:14:32;99735.25;;;16.44;100.00
14253;BME280;7210;51.502;10.722;2023-08-12T04:17:00;99743.03;;;16.46;100.00
14253;BME280;7210;51.502;10.722;2023-08-12T04:19:27;99751.31;;;16.49;100.00
14253;BME280;7210;51.502;10.722;2023-08-12T04:21:54;99733.69;;;16.48;100.00
14253;BME280;7210;51.502;10.722;2023-08-12T04:24:24;99746.00;;;16.59;100.00
14253;BME280;7210;51.502;10.722;2023-08-12T04:26:52;99742.56;;;16.59;100.00
14253;BME280;7210;51.502;10.722;2023-08-12T04:29:19;99747.59;;;16.60;100.00
14253;BME280;7210;51.502;10.722;2023-08-12T04:31:48;99741.22;;;16.66;100.00
14253;BME280;7210;51.502;10.722;2023-08-12T04:34:16;99742.31;;;16.70;100.00
14253;BME280;7210;51.502;10.722;2023-08-12T04:36:43;99745.00;;;16.75;100.00
14253;BME280;7210;51.502;10.722;2023-08-12T04:39:11;99710.75;;;16.57;100.00
14253;BME280;7210;51.502;10.722;2023-08-12T04:41:38;99747.41;;;16.87;100.00
14253;BME280;7210;51.502;10.722;2023-08-12T04:44:06;99745.28;;;16.89;100.00
14253;BME280;7210;51.502;10.722;2023-08-12T04:46:34;99743.44;;;16.94;100.00
14253;BME280;7210;51.502;10.722;2023-08-12T04:49:03;99749.34;;;17.01;100.00
14253;BME280;7210;51.502;10.722;2023-08-12T04:51:31;99744.28;;;17.05;100.00
14253;BME280;7210;51.502;10.722;2023-08-12T04:54:00;99765.41;;;17.21;100.00
14253;BME280;7210;51.502;10.722;2023-08-12T04:56:28;99756.84;;;17.29;100.00
14253;BME280;7210;51.502;10.722;2023-08-12T04:58:56;99731.72;;;17.20;100.00
14253;BME280;7210;51.502;10.722;2023-08-12T05:01:23;99739.22;;;17.33;100.00
14253;BME280;7210;51.502;10.722;2023-08-12T05:04:01;99733.38;;;17.36;100.00
14253;BME280;7210;51.502;10.722;2023-08-12T05:06:29;99728.78;;;17.32;100.00
14253;BME280;7210;51.502;10.722;2023-08-12T05:08:57;99749.63;;;17.25;100.00
14253;BME280;7210;51.502;10.722;2023-08-12T05:11:25;99757.38;;;17.21;100.00
14253;BME280;7210;51.502;10.722;2023-08-12T05:13:52;99747.50;;;17.17;100.00
14253;BME280;7210;51.502;10.722;2023-08-12T05:16:19;99748.81;;;17.14;100.00
14253;BME280;7210;51.502;10.722;2023-08-12T05:18:48;99739.44;;;17.02;100.00
14253;BME280;7210;51.502;10.722;2023-08-12T05:21:43;99727.41;;;16.94;100.00
14253;BME280;7210;51.502;10.722;2023-08-12T05:24:18;99748.22;;;16.92;100.00
14253;BME280;7210;51.502;10.722;2023-08-12T05:26:45;99746.63;;;16.91;100.00
14253;BME280;7210;51.502;10.722;2023-08-12T05:29:12;99742.09;;;16.87;100.00
14253;BME280;7210;51.502;10.722;2023-08-12T05:31:46;99706.75;;;16.65;100.00
14253;BME280;7210;51.502;10.722;2023-08-12T05:34:19;99742.91;;;16.87;100.00
14253;BME280;7210;51.502;10.722;2023-08-12T05:36:48;99729.00;;;16.85;100.00
14253;BME280;7210;51.502;10.722;2023-08-12T05:39:15;99738.09;;;16.99;100.00
14253;BME280;7210;51.502;10.722;2023-08-12T05:42:06;99746.16;;;17.09;100.00
14253;BME280;7210;51.502;10.722;2023-08-12T05:44:33;99735.47;;;17.09;100.00
14253;BME280;7210;51.502;10.722;2023-08-12T05:47:06;99725.84;;;17.13;100.00
14253;BME280;7210;51.502;10.722;2023-08-12T05:49:36;99730.91;;;17.20;100.00
14253;BME280;7210;51.502;10.722;2023-08-12T05:52:05;99722.13;;;17.24;100.00
14253;BME280;7210;51.502;10.722;2023-08-12T05:54:33;99714.63;;;17.26;100.00
14253;BME280;7210;51.502;10.722;2023-08-12T05:57:00;99703.13;;;17.26;100.00
14253;BME280;7210;51.502;10.722;2023-08-12T05:59:28;99705.00;;;17.30;100.00
14253;BME280;7210;51.502;10.722;2023-08-12T06:02:00;99692.69;;;17.29;100.00
14253;BME280;7210;51.502;10.722;2023-08-12T06:04:30;99684.72;;;17.24;100.00
14253;BME280;7210;51.502;10.722;2023-08-12T06:06:57;99693.25;;;17.26;100.00
14253;BME280;7210;51.502;10.722;2023-08-12T06:09:31;99703.41;;;17.29;100.00
14253;BME280;7210;51.502;10.722;2023-08-12T06:12:00;99701.81;;;17.33;100.00
14253;BME280;7210;51.502;10.722;2023-08-12T06:14:30;99701.03;;;17.38;100.00
14253;BME280;7210;51.502;10.722;2023-08-12T06:16:57;99699.69;;;17.40;100.00
14253;BME280;7210;51.502;10.722;2023-08-12T06:19:24;99693.00;;;17.48;100.00
14253;BME280;7210;51.502;10.722;2023-08-12T06:22:23;99679.91;;;17.51;100.00
14253;BME280;7210;51.502;10.722;2023-08-12T06:24:55;99683.63;;;17.60;100.00
14253;BME280;7210;51.502;10.722;2023-08-12T06:27:23;99700.72;;;17.74;100.00
14253;BME280;7210;51.502;10.722;2023-08-12T06:29:54;99708.19;;;17.82;100.00
14253;BME280;7210;51.502;10.722;2023-08-12T06:32:21;99718.88;;;17.92;100.00
14253;BME280;7210;51.502;10.722;2023-08-12T06:34:54;99715.94;;;17.99;100.00
14253;BME280;7210;51.502;10.722;2023-08-12T06:37:24;99727.41;;;18.04;100.00
14253;BME280;7210;51.502;10.722;2023-08-12T06:39:51;99728.47;;;18.13;100.00
14253;BME280;7210;51.502;10.722;2023-08-12T06:42:31;99719.34;;;18.19;100.00
14253;BME280;7210;51.502;10.722;2023-08-12T06:44:59;99717.19;;;18.21;100.00
14253;BME280;7210;51.502;10.722;2023-08-12T06:47:30;99716.63;;;18.24;100.00
14253;BME280;7210;51.502;10.722;2023-08-12T06:49:57;99696.88;;;18.15;100.00
14253;BME280;7210;51.502;10.722;2023-08-12T06:52:53;99704.31;;;18.23;100.00
14253;BME280;7210;51.502;10.722;2023-08-12T06:55:30;99692.03;;;18.22;100.00
14253;BME280;7210;51.502;10.722;2023-08-12T06:58:01;99703.56;;;18.18;100.00
14253;BME280;7210;51.502;10.722;2023-08-12T07:04:42;99716.66;;;18.34;100.00
14253;BME280;7210;51.502;10.722;2023-08-12T07:07:29;99723.03;;;18.43;100.00
14253;BME280;7210;51.502;10.722;2023-08-12T07:14:57;99758.81;;;18.67;100.00
14253;BME280;7210;51.502;10.722;2023-08-12T07:18:25;99746.00;;;18.59;100.00
14253;BME280;7210;51.502;10.722;2023-08-12T07:21:06;99743.38;;;18.49;100.00
14253;BME280;7210;51.502;10.722;2023-08-12T07:23:42;99736.69;;;18.47;100.00
14253;BME280;7210;51.502;10.722;2023-08-12T07:26:53;99729.41;;;18.52;100.00
14253;BME280;7210;51.502;10.722;2023-08-12T07:29:21;99689.31;;;18.32;100.00
14253;BME280;7210;51.502;10.722;2023-08-12T07:35:56;99712.69;;;18.80;100.00
14253;BME280;7210;51.502;10.722;2023-08-12T07:42:30;99685.31;;;18.83;100.00
14253;BME280;7210;51.502;10.722;2023-08-12T07:45:23;99672.97;;;18.87;100.00
14253;BME280;7210;51.502;10.722;2023-08-12T07:56:05;99662.84;;;18.79;100.00
14253;BME280;7210;51.502;10.722;2023-08-12T08:02:49;99707.31;;;18.80;100.00
14253;BME280;7210;51.502;10.722;2023-08-12T08:05:16;99616.13;;;17.98;100.00
14253;BME280;7210;51.502;10.722;2023-08-12T08:11:52;99700.44;;;18.64;100.00
14253;BME280;7210;51.502;10.722;2023-08-12T08:18:25;99693.34;;;18.83;100.00
14253;BME280;7210;51.502;10.722;2023-08-12T08:25:00;99632.94;;;18.62;100.00
14253;BME280;7210;51.502;10.722;2023-08-12T08:31:35;99673.34;;;19.09;100.00
14253;BME280;7210;51.502;10.722;2023-08-12T08:38:09;99571.78;;;18.74;100.00
14253;BME280;7210;51.502;10.722;2023-08-12T08:44:45;99661.16;;;19.55;100.00
14253;BME280;7210;51.502;10.722;2023-08-12T08:51:21;99663.38;;;20.00;100.00
14253;BME280;7210;51.502;10.722;2023-08-12T08:57:57;99659.38;;;20.63;100.00
14253;BME280;7210;51.502;10.722;2023-08-12T09:08:45;99677.13;;;21.33;100.00
14253;BME280;7210;51.502;10.722;2023-08-12T09:15:18;99684.63;;;21.36;100.00
14253;BME280;7210;51.502;10.722;2023-08-12T09:18:36;99708.75;;;21.41;100.00
14253;BME280;7210;51.502;10.722;2023-08-12T09:25:12;99695.03;;;21.24;100.00
14253;BME280;7210;51.502;10.722;2023-08-12T09:31:46;99727.38;;;21.19;100.00
14253;BME280;7210;51.502;10.722;2023-08-12T09:38:21;99763.63;;;21.58;99.61
14253;BME280;7210;51.502;10.722;2023-08-12T09:44:58;99789.16;;;21.79;99.59
14253;BME280;7210;51.502;10.722;2023-08-12T09:51:35;99807.00;;;21.75;99.35
14253;BME280;7210;51.502;10.722;2023-08-12T09:58:11;99779.34;;;22.02;97.32
14253;BME280;7210;51.502;10.722;2023-08-12T10:08:54;99800.28;;;22.64;92.46
14253;BME280;7210;51.502;10.722;2023-08-12T10:27:13;99843.19;;;23.63;86.51
14253;BME280;7210;51.502;10.722;2023-08-12T10:29:42;99905.53;;;24.02;86.67
14253;BME280;7210;51.502;10.722;2023-08-12T10:32:18;99910.97;;;24.32;85.05
14253;BME280;7210;51.502;10.722;2023-08-12T10:34:54;99936.63;;;24.65;83.42
14253;BME280;7210;51.502;10.722;2023-08-12T10:37:23;99949.06;;;25.05;82.32
14253;BME280;7210;51.502;10.722;2023-08-12T10:39:52;99952.53;;;25.28;80.25
14253;BME280;7210;51.502;10.722;2023-08-12T10:42:49;100010.84;;;25.73;79.45
14253;BME280;7210;51.502;10.722;2023-08-12T10:45:47;100030.53;;;26.12;79.22
14253;BME280;7210;51.502;10.722;2023-08-12T10:48:21;100039.16;;;26.48;76.78
14253;BME280;7210;51.502;10.722;2023-08-12T10:50:53;100033.72;;;26.74;75.20
14253;BME280;7210;51.502;10.722;2023-08-12T10:53:32;100044.09;;;26.72;73.52
14253;BME280;7210;51.502;10.722;2023-08-12T10:56:11;100062.91;;;26.94;72.56
14253;BME280;7210;51.502;10.722;2023-08-12T10:58:46;100067.19;;;27.03;70.61
14253;BME280;7210;51.502;10.722;2023-08-12T11:01:35;100092.34;;;27.46;69.31
14253;BME280;7210;51.502;10.722;2023-08-12T11:04:17;100071.56;;;27.50;68.02
14253;BME280;7210;51.502;10.722;2023-08-12T11:06:46;100102.66;;;27.78;67.81
14253;BME280;7210;51.502;10.722;2023-08-12T11:09:13;100074.63;;;27.86;66.23
14253;BME280;7210;51.502;10.722;2023-08-12T11:11:42;100094.56;;;27.90;66.20
14253;BME280;7210;51.502;10.722;2023-08-12T11:14:15;99992.53;;;27.26;65.57
14253;BME280;7210;51.502;10.722;2023-08-12T11:16:43;100101.94;;;27.90;65.58
14253;BME280;7210;51.502;10.722;2023-08-12T11:19:13;100106.69;;;28.01;65.28
14253;BME280;7210;51.502;10.722;2023-08-12T11:21:42;100112.16;;;28.22;64.74
14253;BME280;7210;51.502;10.722;2023-08-12T11:24:11;100088.03;;;28.12;64.13
14253;BME280;7210;51.502;10.722;2023-08-12T11:26:39;100099.28;;;28.10;64.19
14253;BME280;7210;51.502;10.722;2023-08-12T11:29:10;100091.47;;;28.00;64.23
14253;BME280;7210;51.502;10.722;2023-08-12T11:31:56;100082.38;;;27.96;64.08
14253;BME280;7210;51.502;10.722;2023-08-12T11:34:23;100127.81;;;27.96;65.34
14253;BME280;7210;51.502;10.722;2023-08-12T11:36:51;100116.78;;;27.92;64.83
14253;BME280;7210;51.502;10.722;2023-08-12T11:39:30;100137.09;;;27.95;66.09
14253;BME280;7210;51.502;10.722;2023-08-12T11:41:58;100083.66;;;27.99;64.99
14253;BME280;7210;51.502;10.722;2023-08-12T11:44:25;100059.28;;;27.82;64.65
14253;BME280;7210;51.502;10.722;2023-08-12T11:46:55;100040.53;;;27.51;64.79
14253;BME280;7210;51.502;10.722;2023-08-12T11:49:53;100045.59;;;27.32;65.87
14253;BME280;7210;51.502;10.722;2023-08-12T11:52:21;100060.09;;;27.36;65.85
14253;BME280;7210;51.502;10.722;2023-08-12T11:54:54;100060.38;;;27.52;65.66
14253;BME280;7210;51.502;10.722;2023-08-12T11:57:22;100074.19;;;27.76;65.18
14253;BME280;7210;51.502;10.722;2023-08-12T11:59:58;100041.03;;;27.82;64.21
14253;BME280;7210;51.502;10.722;2023-08-12T12:02:28;100044.22;;;27.84;64.00
14253;BME280;7210;51.502;10.722;2023-08-12T12:04:55;100090.44;;;28.33;63.34
14253;BME280;7210;51.502;10.722;2023-08-12T12:07:25;100071.84;;;28.44;62.68
14253;BME280;7210;51.502;10.722;2023-08-12T12:09:54;100062.47;;;28.33;63.15
14253;BME280;7210;51.502;10.722;2023-08-12T12:12:25;100026.94;;;28.09;62.57
14253;BME280;7210;51.502;10.722;2023-08-12T12:14:52;100074.78;;;28.10;63.32
14253;BME280;7210;51.502;10.722;2023-08-12T12:17:31;100084.31;;;28.45;62.68
14253;BME280;7210;51.502;10.722;2023-08-12T12:20:01;100057.41;;;28.43;62.73
14253;BME280;7210;51.502;10.722;2023-08-12T12:22:30;100091.25;;;28.75;62.23
14253;BME280;7210;51.502;10.722;2023-08-12T12:25:06;100069.03;;;28.73;62.23
14253;BME280;7210;51.502;10.722;2023-08-12T12:27:34;100055.69;;;28.92;61.17
14253;BME280;7210;51.502;10.722;2023-08-12T12:30:08;100043.03;;;28.96;61.02
14253;BME280;7210;51.502;10.722;2023-08-12T12:32:44;100054.72;;;28.76;61.38
14253;BME280;7210;51.502;10.722;2023-08-12T12:35:11;100019.94;;;28.61;61.24
14253;BME280;7210;51.502;10.722;2023-08-12T12:37:39;99959.66;;;28.18;60.76
14253;BME280;7210;51.502;10.722;2023-08-12T12:40:24;100063.47;;;28.81;61.48
14253;BME280;7210;51.502;10.722;2023-08-12T12:43:00;100054.91;;;28.91;61.18
14253;BME280;7210;51.502;10.722;2023-08-12T12:45:28;100054.53;;;28.81;60.94
14253;BME280;7210;51.502;10.722;2023-08-12T12:48:02;100093.03;;;29.24;61.12
14253;BME280;7210;51.502;10.722;2023-08-12T12:50:29;100086.25;;;29.30;61.11
14253;BME280;7210;51.502;10.722;2023-08-12T12:52:56;100061.34;;;29.19;60.71
14253;BME280;7210;51.502;10.722;2023-08-12T12:55:24;100056.69;;;29.20;60.55
14253;BME280;7210;51.502;10.722;2023-08-12T12:58:11;100037.59;;;28.96;60.87
14253;BME280;7210;51.502;10.722;2023-08-12T13:00:39;100059.22;;;28.92;61.15
14253;BME280;7210;51.502;10.722;2023-08-12T13:03:08;100059.22;;;28.92;61.08
14253;BME280;7210;51.502;10.722;2023-08-12T13:05:42;100040.22;;;28.84;61.13
14253;BME280;7210;51.502;10.722;2023-08-12T13:08:47;100068.94;;;29.02;60.76
14253;BME280;7210;51.502;10.722;2023-08-12T13:11:24;100062.56;;;28.98;60.75
14253;BME280;7210;51.502;10.722;2023-08-12T13:13:52;100086.25;;;29.30;60.19
14253;BME280;7210;51.502;10.722;2023-08-12T13:16:20;100031.00;;;29.09;59.46
14253;BME280;7210;51.502;10.722;2023-08-12T13:18:49;100045.06;;;28.99;60.17
14253;BME280;7210;51.502;10.722;2023-08-12T13:21:17;100035.00;;;28.79;60.26
14253;BME280;7210;51.502;10.722;2023-08-12T13:23:44;100069.72;;;28.82;60.57
14253;BME280;7210;51.502;10.722;2023-08-12T13:26:18;100078.78;;;28.74;61.29
14253;BME280;7210;51.502;10.722;2023-08-12T13:28:46;100051.72;;;28.57;61.06
14253;BME280;7210;51.502;10.722;2023-08-12T13:31:14;100017.06;;;28.25;61.20
14253;BME280;7210;51.502;10.722;2023-08-12T13:33:41;100029.13;;;27.95;62.14
14253;BME280;7210;51.502;10.722;2023-08-12T13:36:13;100028.56;;;27.81;62.28
14253;BME280;7210;51.502;10.722;2023-08-12T13:38:41;100003.31;;;27.43;63.55
14253;BME280;7210;51.502;10.722;2023-08-12T13:41:08;100060.69;;;27.50;64.09
14253;BME280;7210;51.502;10.722;2023-08-12T13:43:35;100032.94;;;27.36;64.52
14253;BME280;7210;51.502;10.722;2023-08-12T13:50:36;100035.72;;;27.19;65.24
14253;BME280;7210;51.502;10.722;2023-08-12T13:57:11;100034.34;;;26.79;67.27
14253;BME280;7210;51.502;10.722;2023-08-12T14:03:45;100029.59;;;26.59;69.77
14253;BME280;7210;51.502;10.722;2023-08-12T14:06:12;100031.34;;;26.55;70.45
14253;BME280;7210;51.502;10.722;2023-08-12T14:08:42;100006.59;;;26.48;71.04
14253;BME280;7210;51.502;10.722;2023-08-12T14:11:09;100010.44;;;26.47;72.24
14253;BME280;7210;51.502;10.722;2023-08-12T14:13:38;99983.75;;;26.49;72.98
14253;BME280;7210;51.502;10.722;2023-08-12T14:16:05;99968.94;;;26.38;73.26
14253;BME280;7210;51.502;10.722;2023-08-12T14:18:33;99950.13;;;26.33;73.43
14253;BME280;7210;51.502;10.722;2023-08-12T14:21:00;99949.78;;;26.43;73.71
14253;BME280;7210;51.502;10.722;2023-08-12T14:23:36;99924.75;;;26.38;72.98
14253;BME280;7210;51.502;10.722;2023-08-12T14:26:03;99900.84;;;26.23;73.42
14253;BME280;7210;51.502;10.722;2023-08-12T14:28:37;99905.16;;;26.15;73.76
14253;BME280;7210;51.502;10.722;2023-08-12T14:31:05;99891.41;;;26.20;74.04
14253;BME280;7210;51.502;10.722;2023-08-12T14:33:42;99867.19;;;26.15;73.78
14253;BME280;7210;51.502;10.722;2023-08-12T14:36:29;99898.06;;;26.48;73.54
14253;BME280;7210;51.502;10.722;2023-08-12T14:43:04;99902.50;;;26.61;73.09
14253;BME280;7210;51.502;10.722;2023-08-12T14:45:38;99908.91;;;26.65;73.27
14253;BME280;7210;51.502;10.722;2023-08-12T14:48:06;99905.09;;;26.49;73.65
14253;BME280;7210;51.502;10.722;2023-08-12T14:50:33;99893.41;;;26.49;73.36
14253;BME280;7210;51.502;10.722;2023-08-12T14:53:00;99908.22;;;26.68;73.51
14253;BME280;7210;51.502;10.722;2023-08-12T14:55:28;99891.94;;;26.68;73.42
14253;BME280;7210;51.502;10.722;2023-08-12T14:58:06;99878.72;;;26.50;73.34
14253;BME280;7210;51.502;10.722;2023-08-12T15:00:33;99883.91;;;26.34;73.53
14253;BME280;7210;51.502;10.722;2023-08-12T15:03:03;99878.63;;;26.29;73.64
14253;BME280;7210;51.502;10.722;2023-08-12T15:05:36;99884.72;;;26.26;73.57
14253;BME280;7210;51.502;10.722;2023-08-12T15:08:04;99879.16;;;26.06;73.73
14253;BME280;7210;51.502;10.722;2023-08-12T15:10:36;99897.47;;;26.34;74.02
14253;BME280;7210;51.502;10.722;2023-08-12T15:13:03;99878.78;;;26.41;73.66
14253;BME280;7210;51.502;10.722;2023-08-12T15:15:31;99877.31;;;26.52;73.20
14253;BME280;7210;51.502;10.722;2023-08-12T15:17:58;99855.63;;;26.52;72.90
14253;BME280;7210;51.502;10.722;2023-08-12T15:20:32;99878.97;;;26.82;72.26
14253;BME280;7210;51.502;10.722;2023-08-12T15:23:47;99869.91;;;26.78;71.34
14253;BME280;7210;51.502;10.722;2023-08-12T15:26:24;99866.69;;;26.76;71.72
14253;BME280;7210;51.502;10.722;2023-08-12T15:29:18;99897.88;;;26.99;71.26
14253;BME280;7210;51.502;10.722;2023-08-12T15:32:36;99929.59;;;27.24;71.11
14253;BME280;7210;51.502;10.722;2023-08-12T15:35:37;99919.63;;;27.37;70.20